createdAt,value
2023-05-05T00:01:30.864Z,14.00
2023-05-05T00:03:57.827Z,12.80
2023-05-05T00:06:24.913Z,12.10
2023-05-05T00:08:51.820Z,12.10
2023-05-05T00:11:18.801Z,12.00
2023-05-05T00:13:45.887Z,13.60
2023-05-05T00:16:12.820Z,12.00
2023-05-05T00:18:39.767Z,13.60
2023-05-05T00:21:06.790Z,12.90
2023-05-05T00:23:33.817Z,11.80
2023-05-05T00:26:00.704Z,12.70
2023-05-05T00:28:27.688Z,12.30
2023-05-05T00:30:54.654Z,12.00
2023-05-05T00:33:21.921Z,11.60
2023-05-05T00:35:48.807Z,11.60
2023-05-05T00:38:15.759Z,12.40
2023-05-05T00:40:42.722Z,12.30
2023-05-05T00:43:09.734Z,12.50
2023-05-05T00:45:37.535Z,13.30
2023-05-05T00:48:05.681Z,12.70
2023-05-05T00:50:32.792Z,11.40
2023-05-05T00:53:06.147Z,12.30
2023-05-05T00:55:35.465Z,12.60
2023-05-05T00:58:04.349Z,11.40
2023-05-05T01:00:31.600Z,11.30
2023-05-05T01:02:59.282Z,11.90
2023-05-05T01:05:27.961Z,12.60
2023-05-05T01:08:33.788Z,11.20
2023-05-05T01:11:14.468Z,11.20
2023-05-05T01:13:47.452Z,11.10
2023-05-05T01:16:21.154Z,11.00
2023-05-05T01:19:18.736Z,11.00
2023-05-05T01:21:56.248Z,10.90
2023-05-05T01:24:54.023Z,10.80
2023-05-05T01:28:05.293Z,10.80
2023-05-05T01:30:56.235Z,10.80
2023-05-05T01:33:29.100Z,11.40
2023-05-05T01:36:05.005Z,10.60
2023-05-05T01:38:43.249Z,10.90
2023-05-05T01:41:24.239Z,10.60
2023-05-05T01:43:52.839Z,10.50
2023-05-05T01:46:23.838Z,11.20
2023-05-05T01:48:52.715Z,10.50
2023-05-05T01:51:23.475Z,11.80
2023-05-05T01:53:57.241Z,10.40
2023-05-05T01:56:25.389Z,10.50
2023-05-05T01:58:53.305Z,12.20
2023-05-05T02:01:25.954Z,12.20
2023-05-05T02:03:56.918Z,10.30
2023-05-05T02:06:24.959Z,10.30
2023-05-05T02:08:54.588Z,10.80
2023-05-05T02:11:21.840Z,10.50
2023-05-05T02:13:50.036Z,12.10
2023-05-05T02:16:18.757Z,12.20
2023-05-05T02:18:47.273Z,11.70
2023-05-05T02:21:17.672Z,10.30
2023-05-05T02:23:51.770Z,12.10
2023-05-05T02:26:21.749Z,12.40
2023-05-05T02:29:07.456Z,12.60
2023-05-05T02:31:49.238Z,10.10
2023-05-05T02:34:26.672Z,10.10
2023-05-05T02:37:11.267Z,10.90
2023-05-05T02:40:01.682Z,11.60
2023-05-05T02:42:33.816Z,10.10
2023-05-05T02:45:07.712Z,10.10
2023-05-05T02:47:36.589Z,12.00
2023-05-05T02:50:08.384Z,10.10
2023-05-05T02:52:36.327Z,10.10
2023-05-05T02:55:04.733Z,12.20
2023-05-05T02:58:08.284Z,10.10
2023-05-05T03:01:03.720Z,10.10
2023-05-05T03:03:47.499Z,10.10
2023-05-05T03:06:18.630Z,10.10
2023-05-05T03:09:34.751Z,11.40
2023-05-05T03:12:05.671Z,10.10
2023-05-05T03:14:41.348Z,10.10
2023-05-05T03:17:11.669Z,11.80
2023-05-05T03:19:42.525Z,12.00
2023-05-05T03:22:10.212Z,12.70
2023-05-05T03:24:37.075Z,12.30
2023-05-05T03:27:04.099Z,11.90
2023-05-05T03:29:31.025Z,10.00
2023-05-05T03:31:59.192Z,11.80
2023-05-05T03:34:26.051Z,11.20
2023-05-05T03:36:52.946Z,9.90
2023-05-05T03:39:19.934Z,11.40
2023-05-05T03:41:46.946Z,12.20
2023-05-05T03:44:13.892Z,9.90
2023-05-05T03:46:40.880Z,10.70
2023-05-05T03:49:09.798Z,10.80
2023-05-05T03:51:37.431Z,9.90
2023-05-05T03:54:04.392Z,10.00
2023-05-05T03:56:31.385Z,10.00
2023-05-05T03:58:58.354Z,11.20
2023-05-05T04:01:25.433Z,11.50
2023-05-05T04:03:52.487Z,11.80
2023-05-05T04:06:19.608Z,12.40
2023-05-05T04:08:46.674Z,10.60
2023-05-05T04:11:13.751Z,10.80
2023-05-05T04:13:41.391Z,10.90
2023-05-05T04:16:09.004Z,10.80
2023-05-05T04:18:36.222Z,10.90
2023-05-05T04:21:03.408Z,10.30
2023-05-05T04:23:30.589Z,10.30
2023-05-05T04:25:57.532Z,12.00
2023-05-05T04:28:24.508Z,10.30
2023-05-05T04:30:51.534Z,10.30
2023-05-05T04:33:18.590Z,12.80
2023-05-05T04:35:45.590Z,10.20
2023-05-05T04:38:12.525Z,12.40
2023-05-05T04:40:41.305Z,10.20
2023-05-05T04:43:09.026Z,10.20
2023-05-05T04:45:35.989Z,10.80
2023-05-05T04:48:05.046Z,11.10
2023-05-05T04:50:32.626Z,10.30
2023-05-05T04:52:59.685Z,12.70
2023-05-05T04:55:26.741Z,12.10
2023-05-05T04:57:54.293Z,8.70
2023-05-05T05:00:21.664Z,13.60
2023-05-05T05:02:48.631Z,10.30
2023-05-05T05:05:15.744Z,11.80
2023-05-05T05:07:42.683Z,10.40
2023-05-05T05:10:10.212Z,10.70
2023-05-05T05:12:37.492Z,10.50
2023-05-05T05:15:05.267Z,12.50
2023-05-05T05:17:32.350Z,10.60
2023-05-05T05:20:01.551Z,10.70
2023-05-05T05:22:28.489Z,10.80
2023-05-05T05:24:55.411Z,12.60
2023-05-05T05:27:22.354Z,11.70
2023-05-05T05:29:49.273Z,12.90
2023-05-05T05:32:16.264Z,12.80
2023-05-05T05:34:43.226Z,13.80
2023-05-05T05:37:10.285Z,12.90
2023-05-05T05:39:37.198Z,12.70
2023-05-05T05:42:04.148Z,11.40
2023-05-05T05:44:31.198Z,13.20
2023-05-05T05:46:58.128Z,11.60
2023-05-05T05:49:25.051Z,11.60
2023-05-05T05:51:51.980Z,12.70
2023-05-05T05:54:18.917Z,12.80
2023-05-05T05:56:45.930Z,13.20
2023-05-05T05:59:12.940Z,11.90
2023-05-05T06:01:40.459Z,12.40
2023-05-05T06:04:07.614Z,12.30
2023-05-05T06:06:34.737Z,12.20
2023-05-05T06:09:01.681Z,13.80
2023-05-05T06:11:28.618Z,12.40
2023-05-05T06:13:55.554Z,12.70
2023-05-05T06:16:22.527Z,12.20
2023-05-05T06:18:49.394Z,12.90
2023-05-05T06:21:16.296Z,12.90
2023-05-05T06:23:43.192Z,13.60
2023-05-05T06:26:10.064Z,12.40
2023-05-05T06:28:37.325Z,12.50
2023-05-05T06:31:04.458Z,12.40
2023-05-05T06:33:32.577Z,12.50
2023-05-05T06:36:00.263Z,12.60
2023-05-05T06:38:27.186Z,14.50
2023-05-05T06:40:54.131Z,13.70
2023-05-05T06:43:21.033Z,13.90
2023-05-05T06:45:47.960Z,14.50
2023-05-05T06:48:14.985Z,12.90
2023-05-05T06:50:42.317Z,13.70
2023-05-05T06:53:09.375Z,13.30
2023-05-05T06:55:36.433Z,13.50
2023-05-05T06:58:03.602Z,14.20
2023-05-05T07:00:30.829Z,13.20
2023-05-05T07:02:57.878Z,14.60
2023-05-05T07:05:24.855Z,14.00
2023-05-05T07:07:56.279Z,14.00
2023-05-05T07:10:24.564Z,13.70
2023-05-05T07:12:52.547Z,13.50
2023-05-05T07:15:27.406Z,13.60
2023-05-05T07:17:55.594Z,14.40
2023-05-05T07:20:22.677Z,13.90
2023-05-05T07:22:49.591Z,16.60
2023-05-05T07:25:16.581Z,13.90
2023-05-05T07:27:43.573Z,14.10
2023-05-05T07:30:15.285Z,14.60
2023-05-05T07:32:44.500Z,14.20
2023-05-05T07:35:11.684Z,14.50
2023-05-05T07:37:38.586Z,14.40
2023-05-05T07:40:06.589Z,15.10
2023-05-05T07:42:33.665Z,14.50
2023-05-05T07:45:00.792Z,14.60
2023-05-05T07:47:27.751Z,14.60
2023-05-05T07:49:54.756Z,14.70
2023-05-05T07:52:33.152Z,14.70
2023-05-05T07:55:05.061Z,14.80
2023-05-05T07:57:32.023Z,14.80
2023-05-05T07:59:58.956Z,14.90
2023-05-05T08:02:26.081Z,14.90
2023-05-05T08:04:53.209Z,15.30
2023-05-05T08:07:20.164Z,15.10
2023-05-05T08:09:47.075Z,15.10
2023-05-05T08:12:15.161Z,15.20
2023-05-05T08:14:42.612Z,15.40
2023-05-05T08:17:09.595Z,15.50
2023-05-05T08:19:36.783Z,15.90
2023-05-05T08:22:03.749Z,15.90
2023-05-05T08:24:30.829Z,15.60
2023-05-05T08:26:57.779Z,15.60
2023-05-05T08:29:24.855Z,15.80
2023-05-05T08:31:52.167Z,16.30
2023-05-05T08:34:19.211Z,16.00
2023-05-05T08:36:46.161Z,16.20
2023-05-05T08:39:13.022Z,16.00
2023-05-05T08:41:39.995Z,16.10
2023-05-05T08:44:08.459Z,16.20
2023-05-05T08:46:36.723Z,16.20
2023-05-05T08:49:05.800Z,16.30
2023-05-05T08:51:41.210Z,16.40
2023-05-05T08:54:15.198Z,16.50
2023-05-05T08:56:45.005Z,16.60
2023-05-05T08:59:13.786Z,16.70
2023-05-05T09:01:42.783Z,16.80
2023-05-05T09:04:11.007Z,16.90
2023-05-05T09:06:38.240Z,16.90
2023-05-05T09:09:05.218Z,17.00
2023-05-05T09:11:34.316Z,17.00
2023-05-05T09:14:01.940Z,17.00
2023-05-05T09:16:28.932Z,17.10
2023-05-05T09:19:05.764Z,17.20
2023-05-05T09:21:33.077Z,17.30
2023-05-05T09:24:11.723Z,17.40
2023-05-05T09:26:44.965Z,17.50
2023-05-05T09:29:19.661Z,17.60
2023-05-05T09:32:08.404Z,17.70
2023-05-05T09:34:36.539Z,17.80
2023-05-05T09:37:04.466Z,18.00
2023-05-05T09:39:31.461Z,18.00
2023-05-05T09:41:58.506Z,18.10
2023-05-05T09:44:40.025Z,18.20
2023-05-05T09:47:22.031Z,18.30
2023-05-05T09:49:58.918Z,18.50
2023-05-05T09:52:26.212Z,18.60
2023-05-05T09:54:57.689Z,18.70
2023-05-05T09:57:33.702Z,18.90
2023-05-05T10:00:05.764Z,19.10
2023-05-05T10:02:35.582Z,19.30
2023-05-05T10:05:10.989Z,19.50
2023-05-05T10:07:40.082Z,19.80
2023-05-05T10:10:13.264Z,20.00
2023-05-05T10:12:40.979Z,20.00
2023-05-05T10:15:10.646Z,20.10
2023-05-05T10:17:58.311Z,20.30
2023-05-05T10:20:33.560Z,20.50
2023-05-05T10:23:05.731Z,20.50
2023-05-05T10:25:39.699Z,20.80
2023-05-05T10:28:09.955Z,21.00
2023-05-05T10:30:43.484Z,21.20
2023-05-05T10:33:30.384Z,21.40
2023-05-05T10:36:02.480Z,21.60
2023-05-05T10:38:31.287Z,21.80
2023-05-05T10:41:00.799Z,22.00
2023-05-05T10:43:30.119Z,22.20
2023-05-05T10:45:58.343Z,22.30
2023-05-05T10:48:48.448Z,22.50
2023-05-05T10:51:40.585Z,22.60
2023-05-05T10:55:02.652Z,22.90
2023-05-05T10:57:31.470Z,23.10
2023-05-05T10:59:58.332Z,23.10
2023-05-05T11:02:30.081Z,23.30
2023-05-05T11:05:21.597Z,23.50
2023-05-05T11:07:51.017Z,23.70
2023-05-05T11:10:20.669Z,24.00
2023-05-05T11:13:05.705Z,24.20
2023-05-05T11:15:37.329Z,24.40
2023-05-05T11:18:07.893Z,24.70
2023-05-05T11:20:41.459Z,25.00
2023-05-05T11:23:08.335Z,25.40
2023-05-05T11:25:35.458Z,25.60
2023-05-05T11:28:06.746Z,25.70
2023-05-05T11:30:34.271Z,25.70
2023-05-05T11:33:39.072Z,25.80
2023-05-05T11:36:12.064Z,26.00
2023-05-05T11:38:38.828Z,26.00
2023-05-05T11:41:32.735Z,26.10
2023-05-05T11:44:13.370Z,26.10
2023-05-05T11:46:52.516Z,26.10
2023-05-05T11:49:34.927Z,26.10
2023-05-05T11:52:10.805Z,25.90
2023-05-05T11:54:50.332Z,25.90
2023-05-05T11:57:23.518Z,26.10
2023-05-05T12:00:03.469Z,26.30
2023-05-05T12:02:31.424Z,26.60
2023-05-05T12:04:59.834Z,26.80
2023-05-05T12:07:30.344Z,27.10
2023-05-05T12:09:57.722Z,27.30
2023-05-05T12:12:36.928Z,27.30
2023-05-05T12:15:05.000Z,27.50
2023-05-05T12:17:42.315Z,27.60
2023-05-05T12:20:11.161Z,27.70
2023-05-05T12:22:38.836Z,27.80
2023-05-05T12:25:07.857Z,27.70
2023-05-05T12:27:35.452Z,27.80
2023-05-05T12:30:17.137Z,27.60
2023-05-05T12:32:44.908Z,27.60
2023-05-05T12:35:13.557Z,27.50
2023-05-05T12:37:40.870Z,27.60
2023-05-05T12:40:09.077Z,27.70
2023-05-05T12:42:40.102Z,27.60
2023-05-05T12:45:17.429Z,27.50
2023-05-05T12:47:44.826Z,27.40
2023-05-05T12:50:11.886Z,27.40
2023-05-05T12:52:44.947Z,27.30
2023-05-05T12:55:12.586Z,27.20
2023-05-05T12:57:58.529Z,27.00
2023-05-05T13:00:26.214Z,26.90
2023-05-05T13:02:53.363Z,26.80
2023-05-05T13:05:36.263Z,26.60
2023-05-05T13:08:03.162Z,26.50
2023-05-05T13:10:31.247Z,26.40
2023-05-05T13:12:58.708Z,26.30
2023-05-05T13:15:26.182Z,26.30
2023-05-05T13:18:02.740Z,26.30
2023-05-05T13:20:30.196Z,26.30
2023-05-05T13:22:57.682Z,26.20
2023-05-05T13:25:24.712Z,26.20
2023-05-05T13:27:51.899Z,26.10
2023-05-05T13:30:19.169Z,26.20
2023-05-05T13:32:46.326Z,26.20
2023-05-05T13:35:15.527Z,26.30
2023-05-05T13:37:44.497Z,26.50
2023-05-05T13:40:13.351Z,26.70
2023-05-05T13:42:40.284Z,26.70
2023-05-05T13:45:07.973Z,27.00
2023-05-05T13:47:35.106Z,27.30
2023-05-05T13:50:02.222Z,27.60
2023-05-05T13:52:31.597Z,28.00
2023-05-05T13:55:00.011Z,28.20
2023-05-05T13:57:26.992Z,28.00
2023-05-05T13:59:53.842Z,27.80
2023-05-05T14:02:20.818Z,27.80
2023-05-05T14:04:47.683Z,27.90
2023-05-05T14:07:14.623Z,28.10
2023-05-05T14:09:41.645Z,28.20
2023-05-05T14:12:08.524Z,28.00
2023-05-05T14:14:35.524Z,27.80
2023-05-05T14:17:02.501Z,27.60
2023-05-05T14:19:29.407Z,27.70
2023-05-05T14:21:56.328Z,27.90
2023-05-05T14:24:23.259Z,28.10
2023-05-05T14:26:50.259Z,28.30
2023-05-05T14:29:17.183Z,28.50
2023-05-05T14:31:44.061Z,28.70
2023-05-05T14:34:11.075Z,28.80
2023-05-05T14:36:38.046Z,29.00
2023-05-05T14:39:05.097Z,29.20
2023-05-05T14:41:32.031Z,29.20
2023-05-05T14:43:59.218Z,29.00
2023-05-05T14:46:27.433Z,28.60
2023-05-05T14:48:54.604Z,28.60
2023-05-05T14:51:21.526Z,28.80
2023-05-05T14:53:49.167Z,29.20
2023-05-05T14:56:17.002Z,29.80
2023-05-05T14:58:44.062Z,30.20
2023-05-05T15:01:11.015Z,30.30
2023-05-05T15:03:38.015Z,30.40
2023-05-05T15:06:05.545Z,30.60
2023-05-05T15:08:32.505Z,30.80
2023-05-05T15:10:59.485Z,30.80
2023-05-05T15:13:26.672Z,30.60
2023-05-05T15:15:53.609Z,30.50
2023-05-05T15:18:20.526Z,30.50
2023-05-05T15:20:47.482Z,30.70
2023-05-05T15:23:14.453Z,31.00
2023-05-05T15:25:41.511Z,31.40
2023-05-05T15:28:08.733Z,31.70
2023-05-05T15:30:36.036Z,31.90
2023-05-05T15:33:03.140Z,32.00
2023-05-05T15:35:30.098Z,31.90
2023-05-05T15:37:57.240Z,31.90
2023-05-05T15:40:24.261Z,31.40
2023-05-05T15:42:51.401Z,30.60
2023-05-05T15:45:18.347Z,29.90
2023-05-05T15:47:46.105Z,29.80
2023-05-05T15:50:13.161Z,29.90
2023-05-05T15:52:40.206Z,30.20
2023-05-05T15:55:08.388Z,30.40
2023-05-05T15:57:35.590Z,30.50
2023-05-05T16:00:02.932Z,30.60
2023-05-05T16:02:29.941Z,30.60
2023-05-05T16:04:57.187Z,30.70
2023-05-05T16:07:24.158Z,30.40
2023-05-05T16:09:51.232Z,29.90
2023-05-05T16:12:20.866Z,29.60
2023-05-05T16:14:47.861Z,29.30
2023-05-05T16:17:14.782Z,28.90
2023-05-05T16:19:41.696Z,28.40
2023-05-05T16:22:08.607Z,28.30
2023-05-05T16:24:35.518Z,28.10
2023-05-05T16:27:02.654Z,27.80
2023-05-05T16:29:29.746Z,27.30
2023-05-05T16:31:56.754Z,26.80
2023-05-05T16:34:23.926Z,26.50
2023-05-05T16:36:51.024Z,26.10
2023-05-05T16:39:18.014Z,25.70
2023-05-05T16:41:45.037Z,25.40
2023-05-05T16:44:12.125Z,25.00
2023-05-05T16:46:40.045Z,24.50
2023-05-05T16:49:07.028Z,24.20
2023-05-05T16:51:33.917Z,23.90
2023-05-05T16:54:00.792Z,23.70
2023-05-05T16:56:27.766Z,23.50
2023-05-05T16:58:54.631Z,23.30
2023-05-05T17:01:21.515Z,23.20
2023-05-05T17:03:48.463Z,23.00
2023-05-05T17:06:15.328Z,22.90
2023-05-05T17:08:42.298Z,22.70
2023-05-05T17:11:11.667Z,22.60
2023-05-05T17:13:38.858Z,22.50
2023-05-05T17:16:06.479Z,22.40
2023-05-05T17:18:33.487Z,22.40
2023-05-05T17:21:00.430Z,22.20
2023-05-05T17:23:27.382Z,22.10
2023-05-05T17:25:54.350Z,22.10
2023-05-05T17:28:21.287Z,22.00
2023-05-05T17:30:48.192Z,22.00
2023-05-05T17:33:18.401Z,21.90
2023-05-05T17:35:45.505Z,21.80
2023-05-05T17:38:12.452Z,21.80
2023-05-05T17:40:39.399Z,21.70
2023-05-05T17:43:06.585Z,21.60
2023-05-05T17:45:33.567Z,21.60
2023-05-05T17:48:01.028Z,21.50
2023-05-05T17:50:27.935Z,21.50
2023-05-05T17:52:54.918Z,21.40
2023-05-05T17:55:21.851Z,21.40
2023-05-05T17:57:48.826Z,21.30
2023-05-05T18:00:16.373Z,21.20
2023-05-05T18:02:43.921Z,21.20
2023-05-05T18:05:11.222Z,21.10
2023-05-05T18:07:38.692Z,21.10
2023-05-05T18:10:08.202Z,20.40
2023-05-05T18:12:35.161Z,20.90
2023-05-05T18:15:03.098Z,20.90
2023-05-05T18:17:30.601Z,20.80
2023-05-05T18:19:57.819Z,20.70
2023-05-05T18:22:24.749Z,20.60
2023-05-05T18:24:51.675Z,20.50
2023-05-05T18:27:18.560Z,20.40
2023-05-05T18:29:45.603Z,20.40
2023-05-05T18:32:12.590Z,20.30
2023-05-05T18:34:39.564Z,20.20
2023-05-05T18:37:06.637Z,20.20
2023-05-05T18:39:33.863Z,20.10
2023-05-05T18:42:00.775Z,20.00
2023-05-05T18:44:27.712Z,19.90
2023-05-05T18:46:54.821Z,19.80
2023-05-05T18:49:23.180Z,19.60
2023-05-05T18:51:50.194Z,19.50
2023-05-05T18:54:17.172Z,19.40
2023-05-05T18:56:44.049Z,19.30
2023-05-05T18:59:10.979Z,19.20
2023-05-05T19:01:37.906Z,19.10
2023-05-05T19:04:08.442Z,19.00
2023-05-05T19:06:40.045Z,19.00
2023-05-05T19:09:07.023Z,18.90
2023-05-05T19:11:33.935Z,18.80
2023-05-05T19:14:00.833Z,18.70
2023-05-05T19:16:29.257Z,18.70
2023-05-05T19:18:59.570Z,18.70
2023-05-05T19:21:29.548Z,18.50
2023-05-05T19:23:56.428Z,18.50
2023-05-05T19:26:24.952Z,18.40
2023-05-05T19:28:53.174Z,18.30
2023-05-05T19:31:20.228Z,18.30
2023-05-05T19:33:48.226Z,18.20
2023-05-05T19:36:15.277Z,18.10
2023-05-05T19:38:44.423Z,18.10
2023-05-05T19:41:12.082Z,18.00
2023-05-05T19:43:38.972Z,17.90
2023-05-05T19:46:06.213Z,17.90
2023-05-05T19:48:33.197Z,17.90
2023-05-05T19:51:00.227Z,17.70
2023-05-05T19:53:27.833Z,17.60
2023-05-05T19:55:54.746Z,17.50
2023-05-05T19:58:21.797Z,17.50
2023-05-05T20:00:48.739Z,17.40
2023-05-05T20:03:15.809Z,17.40
2023-05-05T20:05:43.021Z,17.40
2023-05-05T20:08:09.914Z,17.30
2023-05-05T20:10:36.823Z,17.20
2023-05-05T20:13:03.781Z,17.20
2023-05-05T20:15:31.994Z,17.20
2023-05-05T20:18:00.161Z,17.10
2023-05-05T20:20:27.228Z,17.00
2023-05-05T20:22:54.132Z,17.00
2023-05-05T20:25:21.570Z,16.90
2023-05-05T20:27:48.540Z,16.90
2023-05-05T20:30:15.572Z,18.20
2023-05-05T20:32:42.731Z,16.80
2023-05-05T20:35:09.879Z,17.20
2023-05-05T20:37:36.826Z,16.60
2023-05-05T20:40:03.986Z,16.60
2023-05-05T20:42:30.989Z,16.50
2023-05-05T20:44:57.998Z,16.40
2023-05-05T20:47:25.029Z,16.40
2023-05-05T20:49:52.718Z,16.30
2023-05-05T20:52:19.979Z,16.20
2023-05-05T20:54:46.918Z,16.30
2023-05-05T20:57:13.968Z,16.20
2023-05-05T20:59:40.922Z,16.00
2023-05-05T21:02:08.207Z,15.90
2023-05-05T21:04:35.325Z,16.00
2023-05-05T21:07:02.907Z,16.50
2023-05-05T21:09:29.893Z,15.90
2023-05-05T21:11:57.008Z,16.40
2023-05-05T21:14:23.879Z,15.80
2023-05-05T21:16:50.815Z,17.30
2023-05-05T21:19:17.824Z,15.80
2023-05-05T21:21:44.727Z,15.60
2023-05-05T21:24:12.961Z,16.30
2023-05-05T21:26:44.328Z,15.80
2023-05-05T21:29:11.762Z,16.00
2023-05-05T21:31:38.751Z,16.00
2023-05-05T21:34:05.722Z,16.10
2023-05-05T21:36:33.926Z,15.30
2023-05-05T21:39:01.205Z,15.30
2023-05-05T21:41:28.330Z,15.50
2023-05-05T21:43:55.648Z,15.20
2023-05-05T21:46:22.627Z,15.20
2023-05-05T21:48:49.601Z,16.30
2023-05-05T21:51:16.536Z,15.20
2023-05-05T21:53:43.584Z,15.10
2023-05-05T21:56:10.523Z,15.00
2023-05-05T21:58:37.454Z,14.90
2023-05-05T22:01:04.507Z,16.10
2023-05-05T22:03:31.626Z,15.40
2023-05-05T22:05:58.633Z,15.60
2023-05-05T22:08:25.734Z,14.90
2023-05-05T22:10:52.645Z,14.80
2023-05-05T22:13:19.624Z,14.90
2023-05-05T22:15:47.628Z,14.80
2023-05-05T22:18:15.508Z,14.70
2023-05-05T22:20:42.630Z,14.80
2023-05-05T22:23:09.636Z,14.70
2023-05-05T22:25:36.593Z,14.70
2023-05-05T22:28:03.693Z,14.70
2023-05-05T22:30:30.723Z,14.60
2023-05-05T22:32:57.667Z,15.80
2023-05-05T22:35:24.934Z,14.90
2023-05-05T22:37:51.885Z,14.50
2023-05-05T22:40:18.799Z,14.90
2023-05-05T22:42:45.724Z,14.40
2023-05-05T22:45:13.510Z,14.30
2023-05-05T22:47:40.597Z,15.20
2023-05-05T22:50:08.833Z,14.80
2023-05-05T22:52:36.229Z,14.30
2023-05-05T22:55:03.241Z,14.70
2023-05-05T22:57:30.250Z,14.20
2023-05-05T22:59:57.383Z,14.10
2023-05-05T23:02:26.421Z,15.30
2023-05-05T23:04:53.529Z,14.20
2023-05-05T23:07:20.776Z,14.20
2023-05-05T23:09:47.780Z,14.60
2023-05-05T23:12:14.770Z,14.20
2023-05-05T23:14:41.868Z,14.10
2023-05-05T23:17:08.778Z,15.00
2023-05-05T23:19:36.384Z,14.30
2023-05-05T23:22:04.271Z,15.10
2023-05-05T23:24:31.716Z,14.30
2023-05-05T23:27:02.068Z,14.30
2023-05-05T23:29:29.245Z,14.30
2023-05-05T23:31:56.828Z,14.30
2023-05-05T23:34:24.356Z,14.30
2023-05-05T23:36:51.301Z,14.50
2023-05-05T23:39:18.338Z,14.30
2023-05-05T23:41:45.289Z,14.30
2023-05-05T23:44:12.219Z,15.20
2023-05-05T23:46:39.276Z,14.90
2023-05-05T23:49:06.248Z,14.40
2023-05-05T23:51:33.445Z,14.20
2023-05-05T23:54:00.364Z,14.20
2023-05-05T23:56:27.333Z,16.10
2023-05-05T23:58:54.225Z,14.20
